Time;durP1;ratioP1;P1;durP2;ratioP2;P2;SDS_P1;SDS_P2;PMS_P1;PMS_P2;Temp;Humidity;BMP_temperature;BMP_pressure;BME280_temperature;BME280_humidity;BME280_pressure;Samples;Min_cycle;Max_cycle;Signal;HPM_P1;HPM_P2
2021/03/20 00:01:24;;;;;;;42.35;22.45;;;;;;;-0.46;84.79;100494.38;5115074;28;20157;-72
2021/03/20 00:03:50;;;;;;;39.03;22.77;;;;;;;-0.82;85.11;100444.13;5115386;28;20027;-72
2021/03/20 00:06:20;;;;;;;40.08;23.10;;;;;;;-0.66;85.77;100495.47;5114964;28;20114;-72
2021/03/20 00:08:48;;;;;;;37.17;22.38;;;;;;;-0.69;85.37;100456.19;5115184;28;20038;-73
2021/03/20 00:11:16;;;;;;;34.53;20.25;;;;;;;-0.55;85.72;100494.47;5114822;28;20138;-69
2021/03/20 00:13:42;;;;;;;38.90;22.42;;;;;;;-0.80;86.13;100467.66;5115356;28;20054;-72
2021/03/20 00:16:08;;;;;;;38.17;20.15;;;;;;;-0.79;86.03;100467.66;5096699;28;20135;-73
2021/03/20 00:18:34;;;;;;;38.97;21.70;;;;;;;-1.06;86.21;100421.69;5113581;28;20120;-72
2021/03/20 00:21:00;;;;;;;37.45;20.90;;;;;;;-0.67;86.17;100503.34;5115126;28;20071;-73
2021/03/20 00:23:26;;;;;;;37.05;21.73;;;;;;;-0.81;86.27;100477.28;5114835;28;20039;-73
2021/03/20 00:25:52;;;;;;;37.47;20.02;;;;;;;-0.65;85.97;100504.19;5114790;28;20088;-73
2021/03/20 00:28:22;;;;;;;33.55;18.77;;;;;;;-0.69;86.57;100507.72;5114410;28;20046;-74
2021/03/20 00:30:54;;;;;;;35.40;19.30;;;;;;;-1.12;85.93;100423.50;5114660;28;20485;-72
2021/03/20 00:33:20;;;;;;;32.70;18.77;;;;;;;-0.89;86.06;100473.88;5114446;28;20032;-72
2021/03/20 00:35:46;;;;;;;38.08;20.98;;;;;;;-0.78;86.25;100505.19;5114644;28;20036;-76
2021/03/20 00:38:12;;;;;;;30.60;17.90;;;;;;;-0.64;85.98;100501.56;5114433;28;20420;-84
2021/03/20 00:40:38;;;;;;;30.95;18.55;;;;;;;-0.76;86.54;100509.53;5096812;28;20496;-77
2021/03/20 00:43:04;;;;;;;34.22;18.92;;;;;;;-0.60;86.01;100513.72;5079298;28;20539;-75
2021/03/20 00:45:30;;;;;;;30.85;18.70;;;;;;;-0.43;85.61;100510.06;5095707;28;20089;-76
2021/03/20 00:48:06;;;;;;;32.00;18.65;;;;;;;-0.60;85.25;100484.91;5096197;28;20481;-74
2021/03/20 00:50:32;;;;;;;32.42;18.90;;;;;;;-0.99;85.26;100457.38;5113928;28;20032;-75
2021/03/20 00:52:58;;;;;;;36.58;20.75;;;;;;;-0.68;85.46;100517.31;5096179;28;20073;-74
2021/03/20 00:55:23;;;;;;;35.10;19.27;;;;;;;-0.83;86.12;100489.53;5113908;28;20032;-74
2021/03/20 00:57:49;;;;;;;34.70;20.73;;;;;;;-0.63;85.32;100524.25;5114476;28;20028;-73
2021/03/20 01:00:19;;;;;;;39.42;21.27;;;;;;;-0.66;85.64;100513.81;5113957;28;20036;-75
2021/03/20 01:02:44;;;;;;;36.50;21.30;;;;;;;-0.68;85.30;100519.91;5095949;28;20036;-71
2021/03/20 01:05:11;;;;;;;35.65;20.70;;;;;;;-0.82;85.82;100496.50;5114001;28;20043;-71
2021/03/20 01:07:37;;;;;;;37.53;21.23;;;;;;;-0.67;85.63;100516.44;5095660;28;20363;-72
2021/03/20 01:10:10;;;;;;;33.85;20.48;;;;;;;-0.72;85.73;100519.09;5113881;28;20036;-72
2021/03/20 01:12:36;;;;;;;35.97;20.48;;;;;;;-0.68;85.31;100515.53;5113691;28;20112;-72
2021/03/20 01:15:03;;;;;;;36.95;20.33;;;;;;;-0.62;84.99;100522.50;5114128;28;20047;-71
2021/03/20 01:17:29;;;;;;;31.38;18.02;;;;;;;-0.66;85.46;100508.56;5113322;28;20082;-71
2021/03/20 01:19:55;;;;;;;34.20;18.67;;;;;;;-1.09;85.60;100439.16;5095652;28;20058;-71
2021/03/20 01:22:20;;;;;;;31.45;19.08;;;;;;;-0.77;85.09;100488.56;5113411;28;20035;-72
2021/03/20 01:24:46;;;;;;;33.03;18.70;;;;;;;-0.78;85.45;100487.72;5113874;28;20059;-71
2021/03/20 01:27:11;;;;;;;33.92;19.50;;;;;;;-0.93;85.76;100487.88;5113749;28;20028;-71
2021/03/20 01:29:37;;;;;;;36.38;19.50;;;;;;;-0.76;85.66;100522.63;5077956;28;20496;-72
2021/03/20 01:32:02;;;;;;;37.40;20.00;;;;;;;-0.80;85.67;100523.53;5113842;28;20177;-71
2021/03/20 01:34:28;;;;;;;33.58;18.85;;;;;;;-0.90;85.76;100522.75;5113314;28;20039;-70
2021/03/20 01:36:53;;;;;;;35.22;20.63;;;;;;;-1.00;86.52;100523.72;5078654;28;20466;-71
2021/03/20 01:39:19;;;;;;;32.30;19.25;;;;;;;-1.21;86.57;100484.66;5113155;28;20128;-73
2021/03/20 01:41:44;;;;;;;32.33;19.40;;;;;;;-1.11;86.40;100488.91;5095306;28;20072;-74
2021/03/20 01:44:21;;;;;;;35.50;19.90;;;;;;;-1.02;85.66;100498.44;5113445;28;20100;-74
2021/03/20 01:46:54;;;;;;;34.75;19.45;;;;;;;-0.85;86.20;100522.72;5113421;28;20107;-74
2021/03/20 01:49:40;;;;;;;32.60;18.80;;;;;;;-0.95;85.69;100526.31;5112966;28;20409;-73
2021/03/20 01:52:12;;;;;;;34.80;18.98;;;;;;;-1.01;86.12;100527.22;5113713;28;20032;-71
2021/03/20 01:55:05;;;;;;;35.58;20.38;;;;;;;-1.04;86.22;100532.50;5112959;28;20584;-71
2021/03/20 01:57:36;;;;;;;36.97;20.13;;;;;;;-1.24;87.05;100530.03;5094869;28;20092;-74
2021/03/20 02:00:08;;;;;;;40.45;21.15;;;;;;;-1.16;86.73;100525.63;5113185;28;20110;-74
2021/03/20 02:02:34;;;;;;;38.25;21.25;;;;;;;-1.09;86.62;100531.66;5113110;28;20030;-74
2021/03/20 02:05:00;;;;;;;39.92;21.98;;;;;;;-1.19;86.89;100527.38;5113343;28;20027;-75
2021/03/20 02:07:25;;;;;;;39.83;21.75;;;;;;;-1.16;86.92;100511.63;5094816;28;20046;-74
2021/03/20 02:09:51;;;;;;;37.30;21.17;;;;;;;-1.16;86.49;100525.63;5094902;28;20058;-73
2021/03/20 02:12:24;;;;;;;41.22;21.70;;;;;;;-1.20;86.64;100528.25;5094973;28;20055;-73
2021/03/20 02:15:10;;;;;;;37.90;21.73;;;;;;;-1.06;86.51;100535.97;5113195;28;20074;-73
2021/03/20 02:18:04;;;;;;;38.67;20.33;;;;;;;-1.13;86.11;100534.31;5112676;28;20075;-70
2021/03/20 02:20:29;;;;;;;37.53;20.63;;;;;;;-1.06;86.13;100526.41;5112796;28;20400;-71
2021/03/20 02:23:07;;;;;;;40.83;20.58;;;;;;;-1.18;86.46;100524.75;5112923;28;20106;-75
2021/03/20 02:25:54;;;;;;;39.70;21.45;;;;;;;-1.17;86.29;100523.84;5112740;28;20027;-74
2021/03/20 02:28:22;;;;;;;36.50;21.30;;;;;;;-1.25;86.78;100527.44;5113031;28;20367;-83
2021/03/20 02:31:25;;;;;;;41.70;21.90;;;;;;;-1.28;87.00;100528.31;5112878;28;20024;-75
2021/03/20 02:34:15;;;;;;;40.70;20.48;;;;;;;-1.17;87.16;100528.22;5094780;28;20033;-75
2021/03/20 02:36:55;;;;;;;35.05;20.48;;;;;;;-1.25;86.57;100507.38;5094555;28;20505;-75
2021/03/20 02:39:38;;;;;;;39.63;20.92;;;;;;;-1.22;86.89;100538.75;5112710;28;20086;-80
2021/03/20 02:42:37;;;;;;;39.05;22.00;;;;;;;-1.32;86.63;100516.13;5114336;28;20470;-74
2021/03/20 02:45:12;;;;;;;39.90;21.38;;;;;;;-1.30;87.32;100543.16;5077591;28;20155;-74
2021/03/20 02:48:16;;;;;;;35.20;20.35;;;;;;;-1.27;87.33;100548.38;5116771;28;20110;-73
2021/03/20 02:50:54;;;;;;;38.03;19.98;;;;;;;-1.36;87.34;100544.94;5111601;28;20082;-73
2021/03/20 02:53:37;;;;;;;39.97;21.88;;;;;;;-1.34;87.24;100533.59;5116703;28;20613;-74
2021/03/20 02:56:08;;;;;;;40.13;20.95;;;;;;;-1.32;87.51;100544.94;5098464;28;20523;-74
2021/03/20 02:58:48;;;;;;;39.25;20.75;;;;;;;-1.26;87.65;100557.09;5116277;28;20034;-74
2021/03/20 03:01:18;;;;;;;37.88;21.00;;;;;;;-1.26;87.27;100554.47;5116546;28;20485;-74
2021/03/20 03:03:46;;;;;;;38.13;20.20;;;;;;;-1.30;87.42;100551.00;5116351;28;20034;-74
2021/03/20 03:06:30;;;;;;;37.20;20.05;;;;;;;-1.20;87.11;100563.16;5116549;28;20032;-74
2021/03/20 03:09:12;;;;;;;37.17;19.83;;;;;;;-1.17;87.02;100554.41;5098045;28;20088;-74
2021/03/20 03:11:50;;;;;;;37.17;19.60;;;;;;;-1.19;87.25;100558.78;5116150;28;20482;-74
2021/03/20 03:14:39;;;;;;;37.65;19.95;;;;;;;-1.21;86.86;100561.41;5116281;28;20126;-74
2021/03/20 03:17:06;;;;;;;36.78;19.35;;;;;;;-1.28;86.51;100551.00;5098091;28;20048;-74
2021/03/20 03:19:37;;;;;;;37.35;18.63;;;;;;;-1.20;86.51;100560.53;5115971;28;20032;-74
2021/03/20 03:22:06;;;;;;;37.80;19.08;;;;;;;-1.31;86.58;100570.22;5116063;28;20069;-74
2021/03/20 03:24:36;;;;;;;40.15;21.73;;;;;;;-1.83;86.84;100502.53;5116035;28;20139;-78
2021/03/20 03:27:08;;;;;;;38.65;20.73;;;;;;;-1.41;87.57;100573.78;5116682;28;20027;-77
2021/03/20 03:29:35;;;;;;;36.72;20.00;;;;;;;-1.44;87.21;100573.81;5116194;28;20362;-76
2021/03/20 03:32:28;;;;;;;41.15;21.02;;;;;;;-1.51;87.87;100586.03;5115976;28;20437;-78
2021/03/20 03:35:04;;;;;;;37.00;20.10;;;;;;;-1.53;87.91;100563.41;5116067;28;20028;-76
2021/03/20 03:37:38;;;;;;;40.60;19.67;;;;;;;-1.39;87.43;100585.09;5115772;28;20330;-75
2021/03/20 03:40:13;;;;;;;39.03;20.90;;;;;;;-1.76;87.56;100514.69;5116102;28;20039;-74
2021/03/20 03:42:40;;;;;;;39.35;20.83;;;;;;;-1.26;86.84;100573.66;5115455;28;20031;-74
2021/03/20 03:45:09;;;;;;;37.88;20.27;;;;;;;-1.21;86.61;100584.09;5115540;28;20093;-73
2021/03/20 03:47:35;;;;;;;40.35;21.27;;;;;;;-1.31;87.23;100591.16;5115417;28;20374;-75
2021/03/20 03:50:09;;;;;;;38.08;19.88;;;;;;;-1.20;86.82;100578.84;5097256;28;20035;-73
2021/03/20 03:52:34;;;;;;;39.55;18.90;;;;;;;-1.17;86.36;100583.19;5096616;28;20027;-73
2021/03/20 03:55:00;;;;;;;36.55;20.08;;;;;;;-1.27;86.35;100587.63;5097628;28;20115;-74
2021/03/20 03:57:51;;;;;;;35.85;19.75;;;;;;;-1.15;86.64;100581.47;5115491;28;20059;-81
2021/03/20 04:00:38;;;;;;;36.95;18.95;;;;;;;-1.30;87.14;100586.78;5115188;28;20432;-74
2021/03/20 04:03:09;;;;;;;39.03;19.98;;;;;;;-1.21;86.58;100582.34;5115633;28;20039;-73
2021/03/20 04:05:59;;;;;;;34.88;19.35;;;;;;;-1.29;86.57;100584.16;5115153;28;20042;-74
2021/03/20 04:08:37;;;;;;;41.70;21.30;;;;;;;-1.29;86.99;100597.25;5115418;28;20032;-73
2021/03/20 04:11:26;;;;;;;37.97;19.45;;;;;;;-1.36;86.26;100571.97;5097279;28;20035;-72
2021/03/20 04:14:23;;;;;;;37.30;20.02;;;;;;;-1.16;86.26;100591.06;5114690;28;20426;-74
2021/03/20 04:17:16;;;;;;;32.40;18.80;;;;;;;-1.16;86.57;100591.06;5114833;28;20070;-72
2021/03/20 04:19:50;;;;;;;32.75;18.90;;;;;;;-0.96;85.63;100592.66;5072892;28;20043;-72
2021/03/20 04:22:30;;;;;;;35.38;19.17;;;;;;;-1.12;85.73;100581.44;5114791;28;20123;-72
2021/03/20 04:25:22;;;;;;;37.08;18.90;;;;;;;-1.07;85.40;100589.22;5114874;28;20103;-73
2021/03/20 04:28:22;;;;;;;35.35;19.60;;;;;;;-1.00;85.52;100601.41;5114693;28;20100;-74
2021/03/20 04:30:59;;;;;;;34.10;18.30;;;;;;;-1.03;85.52;100586.59;5069276;28;20114;-74
2021/03/20 04:33:32;;;;;;;33.55;18.55;;;;;;;-0.97;85.53;100598.75;5114854;28;20470;-73
2021/03/20 04:36:03;;;;;;;34.78;19.50;;;;;;;-0.99;85.31;100600.53;5114812;28;20035;-75
2021/03/20 04:38:29;;;;;;;35.28;18.90;;;;;;;-0.96;84.78;100592.66;5114476;28;20484;-75
2021/03/20 04:41:08;;;;;;;35.10;18.98;;;;;;;-1.08;85.54;100597.97;5114585;28;20118;-75
2021/03/20 04:43:35;;;;;;;38.55;18.83;;;;;;;-1.38;86.55;100602.53;5114490;28;20027;-75
2021/03/20 04:46:05;;;;;;;35.50;19.10;;;;;;;-1.25;86.37;100612.06;5114585;28;20035;-76
2021/03/20 04:48:34;;;;;;;40.45;19.92;;;;;;;-1.43;86.16;100596.47;5114323;28;20046;-83
2021/03/20 04:51:29;;;;;;;35.50;19.95;;;;;;;-1.42;86.65;100610.41;5114258;28;20028;-75
2021/03/20 04:54:07;;;;;;;37.80;19.98;;;;;;;-1.38;86.72;100614.75;5074909;28;20410;-75
2021/03/20 04:56:46;;;;;;;42.30;19.80;;;;;;;-1.52;86.93;100605.25;5095845;28;20431;-75
2021/03/20 04:59:34;;;;;;;40.08;19.52;;;;;;;-1.48;86.66;100613.94;5114232;28;20049;-72
2021/03/20 05:02:05;;;;;;;40.00;20.65;;;;;;;-1.48;86.80;100619.16;5114342;28;20028;-74
2021/03/20 05:04:37;;;;;;;42.60;20.60;;;;;;;-1.54;87.62;100621.84;5113709;28;20070;-73
2021/03/20 05:07:03;;;;;;;39.25;19.95;;;;;;;-1.43;86.74;100617.41;5114381;28;20115;-78
2021/03/20 05:09:30;;;;;;;37.78;19.77;;;;;;;-1.39;86.67;100624.34;5114155;28;20044;-73
2021/03/20 05:12:02;;;;;;;43.50;21.63;;;;;;;-1.54;86.90;100619.22;5095425;28;20035;-76
2021/03/20 05:14:40;;;;;;;38.35;19.48;;;;;;;-1.45;86.96;100627.88;5114119;28;20035;-77
2021/03/20 05:17:17;;;;;;;37.65;19.88;;;;;;;-1.50;86.81;100616.56;5114277;28;20126;-75
2021/03/20 05:19:43;;;;;;;37.97;20.20;;;;;;;-1.48;87.15;100630.50;5113657;28;20115;-78
2021/03/20 05:22:16;;;;;;;37.95;20.90;;;;;;;-1.48;87.09;100629.63;5117934;28;20039;-77
2021/03/20 05:24:42;;;;;;;37.35;20.00;;;;;;;-1.65;87.14;100605.28;5113780;28;20028;-74
2021/03/20 05:27:10;;;;;;;40.75;21.00;;;;;;;-1.51;87.18;100627.03;5113742;28;20122;-75
2021/03/20 05:29:36;;;;;;;37.08;20.08;;;;;;;-1.33;86.59;100628.69;5095547;28;20062;-70
2021/03/20 05:32:04;;;;;;;39.63;19.83;;;;;;;-1.27;86.90;100634.75;5113686;28;20031;-75
2021/03/20 05:34:35;;;;;;;42.45;20.00;;;;;;;-1.53;86.15;100568.63;5113855;28;20043;-73
2021/03/20 05:37:01;;;;;;;35.75;19.58;;;;;;;-1.05;85.46;100629.38;5114040;28;20534;-73
2021/03/20 05:39:27;;;;;;;37.83;18.60;;;;;;;-0.93;85.00;100630.16;5095653;28;20032;-74
2021/03/20 05:42:21;;;;;;;35.70;19.20;;;;;;;-0.88;85.03;100635.34;5095243;28;20027;-77
2021/03/20 05:44:56;;;;;;;35.75;18.50;;;;;;;-0.97;84.93;100643.28;5113324;28;20059;-76
2021/03/20 05:47:31;;;;;;;37.53;18.95;;;;;;;-0.84;85.12;100639.69;5113791;28;20050;-76
2021/03/20 05:50:10;;;;;;;39.53;20.27;;;;;;;-0.82;84.75;100648.41;5113441;28;20068;-73
2021/03/20 05:52:44;;;;;;;38.08;19.42;;;;;;;-0.63;84.65;100654.38;5113804;28;20035;-74
2021/03/20 05:55:26;;;;;;;37.28;19.88;;;;;;;-0.70;84.71;100657.91;5113182;28;20048;-74
2021/03/20 05:58:23;;;;;;;37.53;20.10;;;;;;;-0.43;84.73;100656.81;5094628;28;20046;-74
2021/03/20 06:01:03;;;;;;;34.90;18.88;;;;;;;-0.36;83.68;100659.38;5113338;28;20107;-74
2021/03/20 06:03:50;;;;;;;36.83;18.92;;;;;;;-0.29;83.53;100657.56;5113521;28;20032;-74
2021/03/20 06:06:33;;;;;;;35.92;18.83;;;;;;;-0.18;83.35;100660.09;5113698;28;20412;-75
2021/03/20 06:09:23;;;;;;;37.17;20.05;;;;;;;-0.10;82.64;100661.72;5113118;28;20137;-74
2021/03/20 06:12:29;;;;;;;36.30;19.40;;;;;;;-0.10;82.41;100632.88;5113119;28;20032;-74
2021/03/20 06:15:26;;;;;;;35.42;19.05;;;;;;;0.05;81.80;100660.72;5099172;28;20052;-74
2021/03/20 06:18:15;;;;;;;38.00;20.75;;;;;;;0.14;81.88;100658.00;5115623;28;20043;-74
2021/03/20 06:21:03;;;;;;;35.05;19.33;;;;;;;-0.03;81.52;100626.69;5117070;28;20035;-75
2021/03/20 06:23:35;;;;;;;37.17;19.55;;;;;;;0.33;81.06;100666.53;5117429;28;20031;-75
2021/03/20 06:26:06;;;;;;;35.70;18.50;;;;;;;0.36;80.77;100670.84;5117108;28;20038;-74
2021/03/20 06:28:39;;;;;;;36.67;20.25;;;;;;;0.24;81.11;100648.25;5117046;28;20028;-73
2021/03/20 06:31:13;;;;;;;33.85;18.98;;;;;;;-0.07;81.71;100638.13;5117120;28;20023;-75
2021/03/20 06:33:47;;;;;;;35.13;19.60;;;;;;;0.20;81.96;100675.44;5117447;28;20039;-81
2021/03/20 06:36:27;;;;;;;37.92;19.23;;;;;;;0.25;81.29;100671.00;5117217;28;20489;-74
2021/03/20 06:39:01;;;;;;;32.95;18.80;;;;;;;0.44;80.86;100680.38;5116775;28;20336;-76
2021/03/20 06:41:44;;;;;;;34.78;18.17;;;;;;;0.49;80.36;100677.72;5117156;28;20120;-74
2021/03/20 06:44:21;;;;;;;33.27;17.27;;;;;;;0.53;79.45;100688.16;5116908;28;20606;-74
2021/03/20 06:46:48;;;;;;;33.83;18.17;;;;;;;0.51;79.41;100665.44;5116739;28;20016;-75
2021/03/20 06:49:28;;;;;;;36.72;18.05;;;;;;;0.56;78.87;100685.47;5116650;28;20214;-74
2021/03/20 06:51:55;;;;;;;32.00;17.65;;;;;;;0.65;79.41;100689.75;5116487;28;20027;-75
2021/03/20 06:54:22;;;;;;;38.05;19.52;;;;;;;0.71;78.84;100665.19;5116630;28;20030;-75
2021/03/20 06:56:50;;;;;;;33.35;18.17;;;;;;;0.69;78.03;100672.22;5098589;28;20042;-75
2021/03/20 06:59:16;;;;;;;35.58;17.42;;;;;;;0.47;77.70;100659.34;5116487;28;20040;-74
2021/03/20 07:02:15;;;;;;;32.05;17.80;;;;;;;0.66;77.34;100690.59;5098554;28;20024;-74
2021/03/20 07:04:58;;;;;;;31.23;16.92;;;;;;;0.76;77.95;100715.84;5116470;28;20042;-81
2021/03/20 07:07:58;;;;;;;33.17;17.85;;;;;;;0.97;76.38;100712.97;5116442;28;20489;-74
2021/03/20 07:10:48;;;;;;;33.92;17.75;;;;;;;1.16;75.94;100721.47;5116166;28;20035;-74
2021/03/20 07:13:24;;;;;;;31.08;17.60;;;;;;;0.89;75.40;100662.31;5116682;28;20032;-73
2021/03/20 07:16:07;;;;;;;31.30;17.13;;;;;;;1.36;74.08;100726.44;5115945;28;20382;-75
2021/03/20 07:18:44;;;;;;;29.05;16.02;;;;;;;1.26;73.88;100730.09;5098198;28;20382;-75
2021/03/20 07:21:40;;;;;;;28.77;15.27;;;;;;;1.31;73.96;100736.13;5116345;28;20043;-74
2021/03/20 07:24:17;;;;;;;29.23;16.02;;;;;;;1.55;73.64;100735.78;5077134;28;20039;-75
2021/03/20 07:27:11;;;;;;;31.55;17.23;;;;;;;1.47;73.55;100735.03;5116738;28;20072;-75
2021/03/20 07:29:46;;;;;;;31.13;16.52;;;;;;;1.70;73.21;100726.75;5098164;28;20036;-74
2021/03/20 07:32:18;;;;;;;29.30;16.45;;;;;;;1.77;72.71;100745.94;5115862;28;20119;-74
2021/03/20 07:34:45;;;;;;;27.27;15.68;;;;;;;1.90;72.18;100739.56;5115742;28;20442;-75
2021/03/20 07:37:20;;;;;;;30.63;17.25;;;;;;;2.05;71.37;100744.59;5115842;28;20130;-75
2021/03/20 07:39:48;;;;;;;31.98;17.67;;;;;;;2.19;70.57;100744.34;5115493;28;20555;-74
2021/03/20 07:42:36;;;;;;;34.10;17.00;;;;;;;2.61;69.52;100741.81;5116234;28;20040;-73
2021/03/20 07:45:02;;;;;;;29.55;16.58;;;;;;;2.76;69.25;100739.72;5115606;28;20039;-74
2021/03/20 07:47:38;;;;;;;30.60;16.65;;;;;;;2.84;68.68;100745.69;5115817;28;20042;-74
2021/03/20 07:50:06;;;;;;;28.67;16.90;;;;;;;2.86;69.58;100743.88;5115319;28;20030;-75
2021/03/20 07:52:32;;;;;;;25.40;14.85;;;;;;;3.01;67.38;100728.66;5115851;28;20080;-74
2021/03/20 07:55:22;;;;;;;24.90;14.23;;;;;;;2.94;66.25;100745.50;5115555;28;20032;-75
2021/03/20 07:57:52;;;;;;;26.35;13.80;;;;;;;2.76;66.80;100718.63;5115414;28;20036;-76
2021/03/20 08:00:31;;;;;;;26.83;13.65;;;;;;;2.68;64.80;100694.22;5115468;28;20046;-75
2021/03/20 08:03:17;;;;;;;24.33;13.50;;;;;;;3.27;65.11;100743.88;5115463;28;20039;-74
2021/03/20 08:05:43;;;;;;;21.10;12.07;;;;;;;3.32;61.10;100742.91;5097419;28;20398;-73
2021/03/20 08:08:14;;;;;;;18.85;10.63;;;;;;;3.11;59.12;100740.75;5115099;28;20035;-74
2021/03/20 08:10:43;;;;;;;18.33;10.20;;;;;;;3.12;59.22;100724.88;5115136;28;20072;-74
2021/03/20 08:13:15;;;;;;;17.80;9.98;;;;;;;3.24;58.98;100742.19;5114967;28;20028;-75
2021/03/20 08:15:46;;;;;;;17.25;9.95;;;;;;;3.22;58.75;100744.00;5115398;28;20039;-75
2021/03/20 08:18:12;;;;;;;17.70;9.48;;;;;;;3.33;59.01;100749.91;5096994;28;20062;-74
2021/03/20 08:20:39;;;;;;;19.50;9.98;;;;;;;3.43;58.14;100745.28;5115081;28;20039;-74
2021/03/20 08:23:37;;;;;;;18.25;10.90;;;;;;;3.27;58.02;100744.75;5096701;28;20044;-75
2021/03/20 08:26:15;;;;;;;14.40;8.55;;;;;;;3.26;57.96;100740.38;5114879;28;20483;-75
2021/03/20 08:28:50;;;;;;;16.90;9.60;;;;;;;3.34;56.25;100749.00;5114978;28;20474;-75
2021/03/20 08:31:43;;;;;;;18.83;9.93;;;;;;;3.29;57.15;100745.63;5114955;28;20512;-75
2021/03/20 08:34:16;;;;;;;14.52;9.07;;;;;;;3.33;56.53;100755.19;5114370;28;20058;-76
2021/03/20 08:37:03;;;;;;;18.25;8.98;;;;;;;3.40;55.96;100748.88;5114802;28;20056;-74
2021/03/20 08:39:41;;;;;;;14.70;8.48;;;;;;;3.54;55.99;100761.72;5113870;28;20067;-75
2021/03/20 08:42:34;;;;;;;15.27;8.55;;;;;;;3.58;54.45;100767.81;5114394;28;20035;-75
2021/03/20 08:45:18;;;;;;;16.40;9.40;;;;;;;3.50;56.02;100743.38;5114212;28;20040;-75
2021/03/20 08:48:17;;;;;;;16.08;9.30;;;;;;;3.84;53.08;100754.84;5114677;28;20032;-75
2021/03/20 08:50:54;;;;;;;16.77;8.52;;;;;;;4.08;52.36;100758.66;5114478;28;20519;-74
2021/03/20 08:53:49;;;;;;;15.40;9.10;;;;;;;4.16;53.40;100761.97;5114571;28;20377;-74
2021/03/20 08:56:44;;;;;;;15.20;9.20;;;;;;;4.00;53.47;100761.50;5099557;28;20071;-75
2021/03/20 08:59:26;;;;;;;14.80;9.02;;;;;;;3.85;52.33;100731.97;5114004;28;20109;-74
2021/03/20 09:02:22;;;;;;;15.68;9.20;;;;;;;3.93;51.72;100722.94;5114142;28;20039;-81
2021/03/20 09:04:54;;;;;;;14.68;8.65;;;;;;;4.26;50.77;100752.03;5114219;28;20107;-74
2021/03/20 09:07:23;;;;;;;16.20;9.23;;;;;;;4.36;50.46;100758.81;5095612;28;20032;-74
2021/03/20 09:09:57;;;;;;;13.88;8.35;;;;;;;4.32;49.85;100767.72;5114255;28;20027;-74
2021/03/20 09:12:31;;;;;;;15.77;9.27;;;;;;;4.19;50.03;100771.59;5095875;28;20035;-74
2021/03/20 09:14:58;;;;;;;15.85;8.65;;;;;;;4.11;52.07;100739.22;5113831;28;20043;-74
2021/03/20 09:17:34;;;;;;;15.38;9.10;;;;;;;4.39;50.78;100750.78;5095805;28;20078;-75
2021/03/20 09:20:23;;;;;;;15.27;8.98;;;;;;;4.75;50.93;100769.19;5095721;28;20032;-75
2021/03/20 09:22:50;;;;;;;15.75;9.52;;;;;;;4.74;49.78;100751.63;5114068;28;20035;-75
2021/03/20 09:25:36;;;;;;;18.98;9.68;;;;;;;5.02;49.99;100776.34;5113558;28;20032;-74
2021/03/20 09:28:27;;;;;;;15.60;9.35;;;;;;;5.11;50.63;100770.75;5113492;28;20038;-75
2021/03/20 09:31:17;;;;;;;20.67;10.13;;;;;;;5.24;48.64;100765.13;5113883;28;20116;-74
2021/03/20 09:33:42;;;;;;;12.75;8.18;;;;;;;5.28;48.02;100767.63;5113120;28;20428;-74
2021/03/20 09:36:20;;;;;;;17.45;10.40;;;;;;;5.54;48.08;100769.47;5113449;28;20039;-73
2021/03/20 09:38:51;;;;;;;16.25;9.48;;;;;;;5.23;46.51;100705.22;5113611;28;20073;-74
2021/03/20 09:41:20;;;;;;;18.05;9.73;;;;;;;5.60;47.58;100764.00;5113441;28;20059;-74
2021/03/20 09:44:03;;;;;;;14.98;8.35;;;;;;;5.70;45.63;100770.75;5113543;28;20181;-74
2021/03/20 09:46:47;;;;;;;15.63;8.52;;;;;;;5.79;46.08;100768.69;5113590;28;20043;-75
2021/03/20 09:49:14;;;;;;;14.40;8.77;;;;;;;5.74;44.90;100777.66;5113210;28;20111;-75
2021/03/20 09:51:54;;;;;;;15.00;9.00;;;;;;;5.75;45.16;100762.63;5113416;28;20114;-74
2021/03/20 09:54:29;;;;;;;16.60;8.60;;;;;;;6.05;44.21;100768.75;5113201;28;20024;-75
2021/03/20 09:56:58;;;;;;;16.40;9.32;;;;;;;5.85;44.35;100765.84;5113418;28;20035;-75
2021/03/20 09:59:30;;;;;;;17.40;9.43;;;;;;;5.77;44.80;100765.22;5113310;28;20114;-74
2021/03/20 10:02:14;;;;;;;14.55;8.68;;;;;;;5.86;44.63;100770.22;5113435;28;20027;-74
2021/03/20 10:04:55;;;;;;;18.92;9.18;;;;;;;5.91;44.04;100763.03;5113366;28;20043;-74
2021/03/20 10:07:20;;;;;;;13.20;8.60;;;;;;;5.81;43.42;100772.16;5113214;28;20416;-74
2021/03/20 10:10:15;;;;;;;14.25;9.02;;;;;;;5.85;43.71;100752.63;5112869;28;20027;-74
2021/03/20 10:12:43;;;;;;;14.75;8.90;;;;;;;6.01;43.44;100764.47;5094927;28;20035;-74
2021/03/20 10:15:14;;;;;;;16.17;9.10;;;;;;;5.96;45.71;100767.25;5112815;28;20440;-74
2021/03/20 10:18:05;;;;;;;17.58;9.30;;;;;;;6.19;44.41;100769.16;5112655;28;20047;-75
2021/03/20 10:20:55;;;;;;;14.90;8.98;;;;;;;6.14;44.18;100776.38;5113534;28;20386;-74
2021/03/20 10:23:42;;;;;;;13.38;8.43;;;;;;;6.13;43.88;100769.34;5113034;28;20355;-75
2021/03/20 10:26:27;;;;;;;15.80;8.65;;;;;;;6.17;42.37;100770.97;5112794;28;20027;-74
2021/03/20 10:29:22;;;;;;;16.55;8.98;;;;;;;6.15;42.91;100770.16;5113239;28;20028;-74
2021/03/20 10:31:51;;;;;;;14.55;9.07;;;;;;;6.13;43.20;100753.47;5113066;28;20027;-74
2021/03/20 10:34:20;;;;;;;15.07;8.85;;;;;;;5.92;42.95;100738.28;5094631;28;20028;-75
2021/03/20 10:36:48;;;;;;;15.30;8.35;;;;;;;6.09;41.49;100767.75;5113023;28;20027;-75
2021/03/20 10:39:22;;;;;;;14.93;8.85;;;;;;;5.96;43.99;100771.69;5112947;28;20036;-74
2021/03/20 10:41:50;;;;;;;14.32;9.55;;;;;;;5.94;42.57;100766.44;5113044;28;20035;-74
2021/03/20 10:44:39;;;;;;;14.95;9.30;;;;;;;6.01;43.38;100769.78;5094281;28;20043;-75
2021/03/20 10:47:04;;;;;;;14.00;8.93;;;;;;;5.88;43.23;100781.63;5112634;28;20106;-75
2021/03/20 10:49:36;;;;;;;15.38;9.18;;;;;;;5.72;44.33;100747.72;5112464;28;20115;-74
2021/03/20 10:52:02;;;;;;;15.80;9.20;;;;;;;5.66;43.38;100716.16;5113077;28;20450;-73
2021/03/20 10:54:40;;;;;;;14.02;8.70;;;;;;;5.89;41.95;100772.78;5112973;28;20062;-74
2021/03/20 10:57:10;;;;;;;17.52;9.38;;;;;;;5.86;41.72;100764.94;5112700;28;20042;-76
2021/03/20 10:59:39;;;;;;;14.73;8.85;;;;;;;5.74;41.93;100743.25;5112706;28;20035;-74
2021/03/20 11:02:33;;;;;;;15.93;8.95;;;;;;;5.86;42.83;100764.94;5112804;28;20028;-75
2021/03/20 11:05:20;;;;;;;16.00;8.98;;;;;;;6.02;42.76;100767.06;5116799;28;20443;-74
2021/03/20 11:07:57;;;;;;;17.10;9.27;;;;;;;6.02;42.84;100767.06;5116416;28;20032;-74
2021/03/20 11:10:28;;;;;;;14.35;8.55;;;;;;;6.03;42.13;100774.09;5097915;28;20517;-75
2021/03/20 11:12:55;;;;;;;15.80;8.45;;;;;;;5.99;42.62;100766.31;5116596;28;20494;-75
2021/03/20 11:15:28;;;;;;;15.57;8.88;;;;;;;6.04;41.67;100761.72;5080794;28;20118;-75
2021/03/20 11:17:57;;;;;;;14.00;8.82;;;;;;;6.02;41.08;100740.59;5116025;28;20501;-75
2021/03/20 11:20:28;;;;;;;14.18;9.27;;;;;;;6.13;42.76;100750.81;5115982;28;20035;-75
2021/03/20 11:22:53;;;;;;;14.65;8.63;;;;;;;6.11;41.98;100762.38;5116077;28;20020;-75
2021/03/20 11:25:31;;;;;;;13.80;8.20;;;;;;;6.12;42.39;100762.31;5115916;28;20035;-75
2021/03/20 11:28:05;;;;;;;14.77;8.95;;;;;;;6.15;41.71;100766.66;5116297;28;20445;-74
2021/03/20 11:30:41;;;;;;;13.98;9.35;;;;;;;6.11;43.07;100750.00;5097415;28;20035;-75
2021/03/20 11:33:31;;;;;;;14.93;8.98;;;;;;;5.92;43.29;100704.75;5097343;28;20067;-75
2021/03/20 11:36:00;;;;;;;16.27;9.55;;;;;;;6.18;42.71;100746.25;5115087;28;20043;-75
2021/03/20 11:38:26;;;;;;;13.75;8.27;;;;;;;6.01;42.63;100730.91;5115840;28;20035;-75
2021/03/20 11:40:55;;;;;;;17.35;8.90;;;;;;;6.30;43.16;100747.59;5116036;28;20035;-75
2021/03/20 11:43:35;;;;;;;17.85;9.18;;;;;;;6.36;41.66;100743.84;5115397;28;20027;-75
2021/03/20 11:46:18;;;;;;;14.25;8.68;;;;;;;6.43;40.41;100713.56;5115966;28;20046;-75
2021/03/20 11:48:55;;;;;;;15.70;9.32;;;;;;;6.53;42.10;100741.47;5097434;28;20027;-75
2021/03/20 11:51:47;;;;;;;14.32;9.02;;;;;;;6.69;41.04;100737.34;5115453;28;20055;-73
2021/03/20 11:54:35;;;;;;;13.60;8.18;;;;;;;6.54;39.44;100727.28;5111377;28;20036;-73